sensor_id;sensor_type;location;lat;lon;timestamp;P1;durP1;ratioP1;P2;durP2;ratioP2
18929;SDS011;43305;52.186;5.598;2023-04-03T00:00:35;3.95;;;1.10;;
18929;SDS011;43305;52.186;5.598;2023-04-03T00:03:03;2.97;;;1.25;;
18929;SDS011;43305;52.186;5.598;2023-04-03T00:05:30;2.83;;;1.10;;
18929;SDS011;43305;52.186;5.598;2023-04-03T00:07:57;3.80;;;1.10;;
18929;SDS011;43305;52.186;5.598;2023-04-03T00:10:26;2.03;;;1.00;;
18929;SDS011;43305;52.186;5.598;2023-04-03T00:12:53;5.20;;;1.20;;
18929;SDS011;43305;52.186;5.598;2023-04-03T00:15:20;3.15;;;1.20;;
18929;SDS011;43305;52.186;5.598;2023-04-03T00:17:47;4.10;;;1.10;;
18929;SDS011;43305;52.186;5.598;2023-04-03T00:20:14;2.58;;;1.10;;
18929;SDS011;43305;52.186;5.598;2023-04-03T00:22:42;3.65;;;1.20;;
18929;SDS011;43305;52.186;5.598;2023-04-03T00:25:09;4.38;;;1.13;;
18929;SDS011;43305;52.186;5.598;2023-04-03T00:27:37;4.82;;;1.23;;
18929;SDS011;43305;52.186;5.598;2023-04-03T00:30:05;3.35;;;1.15;;
18929;SDS011;43305;52.186;5.598;2023-04-03T00:32:35;2.85;;;1.15;;
18929;SDS011;43305;52.186;5.598;2023-04-03T00:35:03;3.30;;;1.25;;
18929;SDS011;43305;52.186;5.598;2023-04-03T00:37:30;4.45;;;1.15;;
18929;SDS011;43305;52.186;5.598;2023-04-03T00:39:58;2.28;;;1.15;;
18929;SDS011;43305;52.186;5.598;2023-04-03T00:42:26;4.95;;;1.40;;
18929;SDS011;43305;52.186;5.598;2023-04-03T00:47:52;4.47;;;1.20;;
18929;SDS011;43305;52.186;5.598;2023-04-03T00:50:19;4.57;;;1.38;;
18929;SDS011;43305;52.186;5.598;2023-04-03T00:52:47;3.63;;;1.10;;
18929;SDS011;43305;52.186;5.598;2023-04-03T00:55:15;6.20;;;1.30;;
18929;SDS011;43305;52.186;5.598;2023-04-03T00:57:43;5.18;;;1.23;;
18929;SDS011;43305;52.186;5.598;2023-04-03T01:00:14;5.22;;;1.20;;
18929;SDS011;43305;52.186;5.598;2023-04-03T01:02:44;3.47;;;1.52;;
18929;SDS011;43305;52.186;5.598;2023-04-03T01:05:14;4.13;;;1.40;;
18929;SDS011;43305;52.186;5.598;2023-04-03T01:07:42;3.15;;;1.27;;
18929;SDS011;43305;52.186;5.598;2023-04-03T01:10:12;3.88;;;1.38;;
18929;SDS011;43305;52.186;5.598;2023-04-03T01:12:41;2.72;;;1.60;;
18929;SDS011;43305;52.186;5.598;2023-04-03T01:15:11;5.75;;;1.40;;
18929;SDS011;43305;52.186;5.598;2023-04-03T01:17:40;3.63;;;1.25;;
18929;SDS011;43305;52.186;5.598;2023-04-03T01:23:26;5.28;;;1.50;;
18929;SDS011;43305;52.186;5.598;2023-04-03T01:26:00;3.80;;;1.20;;
18929;SDS011;43305;52.186;5.598;2023-04-03T01:28:30;3.30;;;1.23;;
18929;SDS011;43305;52.186;5.598;2023-04-03T01:30:59;6.68;;;1.17;;
18929;SDS011;43305;52.186;5.598;2023-04-03T01:33:33;4.80;;;1.63;;
18929;SDS011;43305;52.186;5.598;2023-04-03T01:36:00;4.88;;;1.65;;
18929;SDS011;43305;52.186;5.598;2023-04-03T01:38:28;3.72;;;1.35;;
18929;SDS011;43305;52.186;5.598;2023-04-03T01:40:55;6.53;;;1.38;;
18929;SDS011;43305;52.186;5.598;2023-04-03T01:43:23;3.25;;;1.25;;
18929;SDS011;43305;52.186;5.598;2023-04-03T01:45:50;4.82;;;1.58;;
18929;SDS011;43305;52.186;5.598;2023-04-03T01:48:19;4.18;;;1.40;;
18929;SDS011;43305;52.186;5.598;2023-04-03T01:50:48;4.15;;;1.27;;
18929;SDS011;43305;52.186;5.598;2023-04-03T01:53:15;5.07;;;1.70;;
18929;SDS011;43305;52.186;5.598;2023-04-03T01:55:43;4.72;;;1.30;;
18929;SDS011;43305;52.186;5.598;2023-04-03T01:58:10;5.72;;;1.45;;
18929;SDS011;43305;52.186;5.598;2023-04-03T02:00:37;4.43;;;1.38;;
18929;SDS011;43305;52.186;5.598;2023-04-03T02:03:04;5.60;;;1.38;;
18929;SDS011;43305;52.186;5.598;2023-04-03T02:05:32;5.80;;;1.48;;
18929;SDS011;43305;52.186;5.598;2023-04-03T02:08:00;6.07;;;1.80;;
18929;SDS011;43305;52.186;5.598;2023-04-03T02:10:28;8.20;;;1.60;;
18929;SDS011;43305;52.186;5.598;2023-04-03T02:12:55;4.18;;;1.25;;
18929;SDS011;43305;52.186;5.598;2023-04-03T02:15:22;6.70;;;1.92;;
18929;SDS011;43305;52.186;5.598;2023-04-03T02:17:49;6.53;;;1.40;;
18929;SDS011;43305;52.186;5.598;2023-04-03T02:20:16;5.72;;;1.80;;
18929;SDS011;43305;52.186;5.598;2023-04-03T02:22:46;3.55;;;1.50;;
18929;SDS011;43305;52.186;5.598;2023-04-03T02:25:15;4.55;;;1.23;;
18929;SDS011;43305;52.186;5.598;2023-04-03T02:27:43;4.20;;;1.50;;
18929;SDS011;43305;52.186;5.598;2023-04-03T02:30:10;3.95;;;1.30;;
18929;SDS011;43305;52.186;5.598;2023-04-03T02:32:38;6.03;;;1.90;;
18929;SDS011;43305;52.186;5.598;2023-04-03T02:35:06;5.75;;;1.48;;
18929;SDS011;43305;52.186;5.598;2023-04-03T02:37:33;4.38;;;1.50;;
18929;SDS011;43305;52.186;5.598;2023-04-03T02:40:00;5.22;;;1.55;;
18929;SDS011;43305;52.186;5.598;2023-04-03T02:42:29;5.25;;;1.55;;
18929;SDS011;43305;52.186;5.598;2023-04-03T02:44:56;4.22;;;1.80;;
18929;SDS011;43305;52.186;5.598;2023-04-03T02:47:25;4.45;;;1.48;;
18929;SDS011;43305;52.186;5.598;2023-04-03T02:49:52;5.82;;;1.88;;
18929;SDS011;43305;52.186;5.598;2023-04-03T02:52:19;4.90;;;1.55;;
18929;SDS011;43305;52.186;5.598;2023-04-03T02:54:47;5.10;;;1.50;;
18929;SDS011;43305;52.186;5.598;2023-04-03T02:57:14;4.70;;;1.63;;
18929;SDS011;43305;52.186;5.598;2023-04-03T02:59:42;3.33;;;1.55;;
18929;SDS011;43305;52.186;5.598;2023-04-03T03:02:09;10.18;;;2.13;;
18929;SDS011;43305;52.186;5.598;2023-04-03T03:04:36;5.80;;;1.50;;
18929;SDS011;43305;52.186;5.598;2023-04-03T03:07:03;4.65;;;1.65;;
18929;SDS011;43305;52.186;5.598;2023-04-03T03:09:31;3.83;;;1.40;;
18929;SDS011;43305;52.186;5.598;2023-04-03T03:11:58;5.80;;;1.80;;
18929;SDS011;43305;52.186;5.598;2023-04-03T03:14:25;5.68;;;1.50;;
18929;SDS011;43305;52.186;5.598;2023-04-03T03:16:53;5.85;;;1.70;;
18929;SDS011;43305;52.186;5.598;2023-04-03T03:19:20;4.50;;;1.65;;
18929;SDS011;43305;52.186;5.598;2023-04-03T03:21:47;6.20;;;1.77;;
18929;SDS011;43305;52.186;5.598;2023-04-03T03:24:17;5.30;;;1.65;;
18929;SDS011;43305;52.186;5.598;2023-04-03T03:26:47;7.17;;;2.10;;
18929;SDS011;43305;52.186;5.598;2023-04-03T03:29:14;7.65;;;2.00;;
18929;SDS011;43305;52.186;5.598;2023-04-03T03:31:41;6.55;;;1.77;;
18929;SDS011;43305;52.186;5.598;2023-04-03T03:34:10;6.45;;;1.70;;
18929;SDS011;43305;52.186;5.598;2023-04-03T03:36:37;5.25;;;1.85;;
18929;SDS011;43305;52.186;5.598;2023-04-03T03:39:04;4.20;;;1.70;;
18929;SDS011;43305;52.186;5.598;2023-04-03T03:41:32;5.05;;;1.65;;
18929;SDS011;43305;52.186;5.598;2023-04-03T03:43:59;9.73;;;2.08;;
18929;SDS011;43305;52.186;5.598;2023-04-03T03:46:26;4.22;;;2.00;;
18929;SDS011;43305;52.186;5.598;2023-04-03T03:48:53;4.10;;;1.50;;
18929;SDS011;43305;52.186;5.598;2023-04-03T03:51:21;5.70;;;1.80;;
18929;SDS011;43305;52.186;5.598;2023-04-03T03:53:48;6.90;;;2.30;;
18929;SDS011;43305;52.186;5.598;2023-04-03T03:56:15;7.28;;;1.92;;
18929;SDS011;43305;52.186;5.598;2023-04-03T03:58:43;9.35;;;1.83;;
18929;SDS011;43305;52.186;5.598;2023-04-03T04:01:10;5.05;;;1.73;;
18929;SDS011;43305;52.186;5.598;2023-04-03T04:03:37;4.25;;;1.65;;
18929;SDS011;43305;52.186;5.598;2023-04-03T04:06:04;9.30;;;2.30;;
18929;SDS011;43305;52.186;5.598;2023-04-03T04:08:33;4.97;;;1.80;;
18929;SDS011;43305;52.186;5.598;2023-04-03T04:11:02;7.45;;;1.95;;
18929;SDS011;43305;52.186;5.598;2023-04-03T04:13:29;5.68;;;1.88;;
18929;SDS011;43305;52.186;5.598;2023-04-03T04:15:56;7.35;;;2.08;;
18929;SDS011;43305;52.186;5.598;2023-04-03T04:18:23;8.65;;;1.90;;
18929;SDS011;43305;52.186;5.598;2023-04-03T04:20:50;5.07;;;1.88;;
18929;SDS011;43305;52.186;5.598;2023-04-03T04:23:18;8.73;;;2.38;;
18929;SDS011;43305;52.186;5.598;2023-04-03T04:25:47;6.82;;;1.85;;
18929;SDS011;43305;52.186;5.598;2023-04-03T04:28:14;6.63;;;2.10;;
18929;SDS011;43305;52.186;5.598;2023-04-03T04:30:42;9.55;;;2.20;;
18929;SDS011;43305;52.186;5.598;2023-04-03T04:33:09;4.88;;;2.22;;
18929;SDS011;43305;52.186;5.598;2023-04-03T04:35:41;7.13;;;2.30;;
18929;SDS011;43305;52.186;5.598;2023-04-03T04:38:09;6.55;;;2.22;;
18929;SDS011;43305;52.186;5.598;2023-04-03T04:40:36;7.13;;;1.80;;
18929;SDS011;43305;52.186;5.598;2023-04-03T04:43:04;8.63;;;2.35;;
18929;SDS011;43305;52.186;5.598;2023-04-03T04:45:31;7.45;;;2.10;;
18929;SDS011;43305;52.186;5.598;2023-04-03T04:48:01;7.85;;;2.22;;
18929;SDS011;43305;52.186;5.598;2023-04-03T04:50:37;10.18;;;2.20;;
18929;SDS011;43305;52.186;5.598;2023-04-03T04:53:04;5.50;;;2.15;;
18929;SDS011;43305;52.186;5.598;2023-04-03T04:55:31;7.18;;;2.17;;
18929;SDS011;43305;52.186;5.598;2023-04-03T04:57:58;6.65;;;2.17;;
18929;SDS011;43305;52.186;5.598;2023-04-03T05:00:26;7.45;;;1.88;;
18929;SDS011;43305;52.186;5.598;2023-04-03T05:02:54;8.60;;;2.20;;
18929;SDS011;43305;52.186;5.598;2023-04-03T05:05:21;5.88;;;1.92;;
18929;SDS011;43305;52.186;5.598;2023-04-03T05:07:48;7.35;;;2.35;;
18929;SDS011;43305;52.186;5.598;2023-04-03T05:10:15;6.32;;;2.03;;
18929;SDS011;43305;52.186;5.598;2023-04-03T05:12:43;6.35;;;1.92;;
18929;SDS011;43305;52.186;5.598;2023-04-03T05:15:10;5.72;;;1.92;;
18929;SDS011;43305;52.186;5.598;2023-04-03T05:17:45;7.43;;;2.22;;
18929;SDS011;43305;52.186;5.598;2023-04-03T05:20:22;6.90;;;1.98;;
18929;SDS011;43305;52.186;5.598;2023-04-03T05:22:48;6.72;;;2.40;;
18929;SDS011;43305;52.186;5.598;2023-04-03T05:25:15;7.68;;;2.28;;
18929;SDS011;43305;52.186;5.598;2023-04-03T05:27:43;8.25;;;2.45;;
18929;SDS011;43305;52.186;5.598;2023-04-03T05:30:10;7.43;;;2.20;;
18929;SDS011;43305;52.186;5.598;2023-04-03T05:32:40;6.35;;;2.05;;
18929;SDS011;43305;52.186;5.598;2023-04-03T05:35:07;7.57;;;1.90;;
18929;SDS011;43305;52.186;5.598;2023-04-03T05:37:35;7.97;;;2.20;;
18929;SDS011;43305;52.186;5.598;2023-04-03T05:40:03;5.78;;;2.30;;
18929;SDS011;43305;52.186;5.598;2023-04-03T05:42:34;5.43;;;2.03;;
18929;SDS011;43305;52.186;5.598;2023-04-03T05:45:02;9.38;;;2.20;;
18929;SDS011;43305;52.186;5.598;2023-04-03T05:47:30;7.63;;;2.50;;
18929;SDS011;43305;52.186;5.598;2023-04-03T05:49:58;8.02;;;2.40;;
18929;SDS011;43305;52.186;5.598;2023-04-03T05:52:25;6.05;;;2.10;;
18929;SDS011;43305;52.186;5.598;2023-04-03T05:54:54;4.38;;;2.10;;
18929;SDS011;43305;52.186;5.598;2023-04-03T05:57:22;5.93;;;2.20;;
18929;SDS011;43305;52.186;5.598;2023-04-03T05:59:49;5.55;;;2.05;;
18929;SDS011;43305;52.186;5.598;2023-04-03T06:02:17;8.13;;;2.47;;
18929;SDS011;43305;52.186;5.598;2023-04-03T06:04:45;4.82;;;2.15;;
18929;SDS011;43305;52.186;5.598;2023-04-03T06:07:17;7.07;;;2.33;;
18929;SDS011;43305;52.186;5.598;2023-04-03T06:09:47;8.27;;;2.50;;
18929;SDS011;43305;52.186;5.598;2023-04-03T06:12:15;8.75;;;2.47;;
18929;SDS011;43305;52.186;5.598;2023-04-03T06:14:42;5.78;;;2.03;;
18929;SDS011;43305;52.186;5.598;2023-04-03T06:17:09;5.88;;;2.33;;
18929;SDS011;43305;52.186;5.598;2023-04-03T06:19:37;8.80;;;2.33;;
18929;SDS011;43305;52.186;5.598;2023-04-03T06:22:04;5.63;;;2.20;;
18929;SDS011;43305;52.186;5.598;2023-04-03T06:24:34;7.13;;;2.28;;
18929;SDS011;43305;52.186;5.598;2023-04-03T06:27:02;7.32;;;2.30;;
18929;SDS011;43305;52.186;5.598;2023-04-03T06:29:29;6.22;;;2.10;;
18929;SDS011;43305;52.186;5.598;2023-04-03T06:31:57;7.00;;;2.38;;
18929;SDS011;43305;52.186;5.598;2023-04-03T06:34:24;6.10;;;2.15;;
18929;SDS011;43305;52.186;5.598;2023-04-03T06:36:51;6.85;;;2.30;;
18929;SDS011;43305;52.186;5.598;2023-04-03T06:39:18;6.70;;;2.05;;
18929;SDS011;43305;52.186;5.598;2023-04-03T06:41:49;9.52;;;2.20;;
18929;SDS011;43305;52.186;5.598;2023-04-03T06:44:16;8.23;;;2.28;;
18929;SDS011;43305;52.186;5.598;2023-04-03T06:46:44;8.45;;;2.17;;
18929;SDS011;43305;52.186;5.598;2023-04-03T06:49:13;9.98;;;2.22;;
18929;SDS011;43305;52.186;5.598;2023-04-03T06:51:41;7.80;;;2.25;;
18929;SDS011;43305;52.186;5.598;2023-04-03T06:54:08;5.07;;;1.90;;
18929;SDS011;43305;52.186;5.598;2023-04-03T06:56:38;7.07;;;2.10;;
18929;SDS011;43305;52.186;5.598;2023-04-03T06:59:06;6.68;;;2.17;;
18929;SDS011;43305;52.186;5.598;2023-04-03T07:01:34;8.27;;;1.60;;
18929;SDS011;43305;52.186;5.598;2023-04-03T07:04:01;4.20;;;1.80;;
18929;SDS011;43305;52.186;5.598;2023-04-03T07:06:28;7.78;;;1.80;;
18929;SDS011;43305;52.186;5.598;2023-04-03T07:08:56;4.28;;;1.50;;
18929;SDS011;43305;52.186;5.598;2023-04-03T07:11:23;7.47;;;1.80;;
18929;SDS011;43305;52.186;5.598;2023-04-03T07:13:53;4.22;;;1.80;;
18929;SDS011;43305;52.186;5.598;2023-04-03T07:16:21;8.30;;;2.20;;
18929;SDS011;43305;52.186;5.598;2023-04-03T07:18:48;6.68;;;1.90;;
18929;SDS011;43305;52.186;5.598;2023-04-03T07:21:16;4.43;;;1.45;;
18929;SDS011;43305;52.186;5.598;2023-04-03T07:23:43;5.43;;;1.40;;
18929;SDS011;43305;52.186;5.598;2023-04-03T07:26:10;2.70;;;1.25;;
18929;SDS011;43305;52.186;5.598;2023-04-03T07:28:37;7.03;;;1.45;;
18929;SDS011;43305;52.186;5.598;2023-04-03T07:31:06;6.45;;;1.50;;
18929;SDS011;43305;52.186;5.598;2023-04-03T07:33:40;5.95;;;1.55;;
18929;SDS011;43305;52.186;5.598;2023-04-03T07:36:08;6.88;;;1.40;;
18929;SDS011;43305;52.186;5.598;2023-04-03T07:38:39;6.80;;;1.40;;
18929;SDS011;43305;52.186;5.598;2023-04-03T07:41:06;5.32;;;1.20;;
18929;SDS011;43305;52.186;5.598;2023-04-03T07:43:37;4.78;;;1.52;;
18929;SDS011;43305;52.186;5.598;2023-04-03T07:46:04;4.10;;;1.00;;
18929;SDS011;43305;52.186;5.598;2023-04-03T07:48:32;5.72;;;1.40;;
18929;SDS011;43305;52.186;5.598;2023-04-03T07:51:01;4.95;;;1.33;;
18929;SDS011;43305;52.186;5.598;2023-04-03T07:53:30;5.35;;;1.48;;
18929;SDS011;43305;52.186;5.598;2023-04-03T07:55:57;6.90;;;1.58;;
18929;SDS011;43305;52.186;5.598;2023-04-03T07:58:25;6.20;;;2.00;;
18929;SDS011;43305;52.186;5.598;2023-04-03T08:00:52;4.03;;;1.20;;
18929;SDS011;43305;52.186;5.598;2023-04-03T08:03:19;4.85;;;1.55;;
18929;SDS011;43305;52.186;5.598;2023-04-03T08:05:48;6.25;;;1.23;;
18929;SDS011;43305;52.186;5.598;2023-04-03T08:08:19;6.88;;;1.40;;
18929;SDS011;43305;52.186;5.598;2023-04-03T08:10:50;3.42;;;1.23;;
18929;SDS011;43305;52.186;5.598;2023-04-03T08:13:19;4.03;;;1.30;;
18929;SDS011;43305;52.186;5.598;2023-04-03T08:15:47;3.53;;;0.98;;
18929;SDS011;43305;52.186;5.598;2023-04-03T08:18:14;3.03;;;1.20;;
18929;SDS011;43305;52.186;5.598;2023-04-03T08:20:43;5.32;;;1.40;;
18929;SDS011;43305;52.186;5.598;2023-04-03T08:23:10;5.68;;;1.00;;
18929;SDS011;43305;52.186;5.598;2023-04-03T08:25:39;3.83;;;1.08;;
18929;SDS011;43305;52.186;5.598;2023-04-03T08:28:07;3.85;;;1.05;;
18929;SDS011;43305;52.186;5.598;2023-04-03T08:30:38;3.50;;;1.13;;
18929;SDS011;43305;52.186;5.598;2023-04-03T08:33:07;6.07;;;0.95;;
18929;SDS011;43305;52.186;5.598;2023-04-03T08:35:37;3.10;;;0.82;;
18929;SDS011;43305;52.186;5.598;2023-04-03T08:38:08;2.10;;;0.90;;
18929;SDS011;43305;52.186;5.598;2023-04-03T08:40:36;3.42;;;0.80;;
18929;SDS011;43305;52.186;5.598;2023-04-03T08:43:15;2.72;;;0.80;;
18929;SDS011;43305;52.186;5.598;2023-04-03T08:45:55;1.75;;;0.70;;
18929;SDS011;43305;52.186;5.598;2023-04-03T08:48:24;2.58;;;0.73;;
18929;SDS011;43305;52.186;5.598;2023-04-03T08:50:56;3.28;;;0.60;;
18929;SDS011;43305;52.186;5.598;2023-04-03T08:53:28;4.40;;;0.98;;
18929;SDS011;43305;52.186;5.598;2023-04-03T08:55:59;3.95;;;0.80;;
18929;SDS011;43305;52.186;5.598;2023-04-03T08:58:29;2.45;;;0.80;;
18929;SDS011;43305;52.186;5.598;2023-04-03T09:00:59;2.30;;;0.60;;
18929;SDS011;43305;52.186;5.598;2023-04-03T09:03:34;1.35;;;0.47;;
18929;SDS011;43305;52.186;5.598;2023-04-03T09:06:05;3.30;;;0.70;;
18929;SDS011;43305;52.186;5.598;2023-04-03T09:08:40;1.02;;;0.57;;
18929;SDS011;43305;52.186;5.598;2023-04-03T09:11:18;3.13;;;0.50;;
18929;SDS011;43305;52.186;5.598;2023-04-03T09:13:49;4.53;;;0.57;;
18929;SDS011;43305;52.186;5.598;2023-04-03T09:16:24;1.40;;;0.40;;
18929;SDS011;43305;52.186;5.598;2023-04-03T09:18:59;2.05;;;0.55;;
18929;SDS011;43305;52.186;5.598;2023-04-03T09:21:36;1.48;;;0.40;;
18929;SDS011;43305;52.186;5.598;2023-04-03T09:24:07;2.45;;;0.47;;
18929;SDS011;43305;52.186;5.598;2023-04-03T09:26:40;1.75;;;0.32;;
18929;SDS011;43305;52.186;5.598;2023-04-03T09:29:13;1.80;;;0.47;;
18929;SDS011;43305;52.186;5.598;2023-04-03T09:31:44;0.75;;;0.40;;
18929;SDS011;43305;52.186;5.598;2023-04-03T09:34:16;1.95;;;0.52;;
18929;SDS011;43305;52.186;5.598;2023-04-03T09:36:48;0.95;;;0.40;;
18929;SDS011;43305;52.186;5.598;2023-04-03T09:39:18;4.03;;;0.55;;
18929;SDS011;43305;52.186;5.598;2023-04-03T09:41:58;1.95;;;0.40;;
18929;SDS011;43305;52.186;5.598;2023-04-03T09:44:26;3.22;;;0.50;;
18929;SDS011;43305;52.186;5.598;2023-04-03T09:46:55;1.92;;;0.50;;
18929;SDS011;43305;52.186;5.598;2023-04-03T09:49:22;2.88;;;0.50;;
18929;SDS011;43305;52.186;5.598;2023-04-03T09:51:49;3.42;;;0.60;;
18929;SDS011;43305;52.186;5.598;2023-04-03T09:54:36;2.22;;;0.40;;
18929;SDS011;43305;52.186;5.598;2023-04-03T09:57:08;1.77;;;0.50;;
18929;SDS011;43305;52.186;5.598;2023-04-03T09:59:45;3.17;;;0.60;;
18929;SDS011;43305;52.186;5.598;2023-04-03T10:02:28;1.63;;;0.50;;
18929;SDS011;43305;52.186;5.598;2023-04-03T10:05:00;2.50;;;0.60;;
18929;SDS011;43305;52.186;5.598;2023-04-03T10:07:32;1.48;;;0.50;;
18929;SDS011;43305;52.186;5.598;2023-04-03T10:10:10;2.38;;;0.80;;
18929;SDS011;43305;52.186;5.598;2023-04-03T10:12:46;1.33;;;0.40;;
18929;SDS011;43305;52.186;5.598;2023-04-03T10:15:15;1.23;;;0.40;;
18929;SDS011;43305;52.186;5.598;2023-04-03T10:17:48;1.15;;;0.55;;
18929;SDS011;43305;52.186;5.598;2023-04-03T10:20:26;1.23;;;0.30;;
18929;SDS011;43305;52.186;5.598;2023-04-03T10:23:02;2.90;;;0.50;;
18929;SDS011;43305;52.186;5.598;2023-04-03T10:25:41;0.70;;;0.30;;
18929;SDS011;43305;52.186;5.598;2023-04-03T10:28:16;1.08;;;0.40;;
18929;SDS011;43305;52.186;5.598;2023-04-03T10:30:52;1.65;;;0.30;;
18929;SDS011;43305;52.186;5.598;2023-04-03T10:33:28;1.80;;;0.50;;
18929;SDS011;43305;52.186;5.598;2023-04-03T10:36:08;1.55;;;0.50;;
18929;SDS011;43305;52.186;5.598;2023-04-03T10:38:43;1.00;;;0.38;;
18929;SDS011;43305;52.186;5.598;2023-04-03T10:41:20;1.20;;;0.40;;
18929;SDS011;43305;52.186;5.598;2023-04-03T10:44:00;1.30;;;0.30;;
18929;SDS011;43305;52.186;5.598;2023-04-03T10:46:38;1.52;;;0.40;;
18929;SDS011;43305;52.186;5.598;2023-04-03T10:49:17;2.55;;;0.50;;
18929;SDS011;43305;52.186;5.598;2023-04-03T10:51:58;2.38;;;0.60;;
18929;SDS011;43305;52.186;5.598;2023-04-03T10:54:34;4.40;;;0.57;;
18929;SDS011;43305;52.186;5.598;2023-04-03T10:57:05;1.67;;;0.60;;
18929;SDS011;43305;52.186;5.598;2023-04-03T10:59:36;1.55;;;0.60;;
18929;SDS011;43305;52.186;5.598;2023-04-03T11:02:07;2.03;;;0.80;;
18929;SDS011;43305;52.186;5.598;2023-04-03T11:04:44;1.52;;;0.40;;
18929;SDS011;43305;52.186;5.598;2023-04-03T11:07:15;2.70;;;0.57;;
18929;SDS011;43305;52.186;5.598;2023-04-03T11:09:50;2.75;;;0.68;;
18929;SDS011;43305;52.186;5.598;2023-04-03T11:12:23;1.02;;;0.50;;
18929;SDS011;43305;52.186;5.598;2023-04-03T11:14:55;2.00;;;0.60;;
18929;SDS011;43305;52.186;5.598;2023-04-03T11:17:27;1.50;;;0.50;;
18929;SDS011;43305;52.186;5.598;2023-04-03T11:20:10;10.27;;;0.90;;
18929;SDS011;43305;52.186;5.598;2023-04-03T11:22:45;0.47;;;0.30;;
18929;SDS011;43305;52.186;5.598;2023-04-03T11:25:18;0.93;;;0.40;;
18929;SDS011;43305;52.186;5.598;2023-04-03T11:27:49;1.70;;;0.77;;
18929;SDS011;43305;52.186;5.598;2023-04-03T11:30:23;2.92;;;0.57;;
18929;SDS011;43305;52.186;5.598;2023-04-03T11:33:13;1.33;;;0.50;;
18929;SDS011;43305;52.186;5.598;2023-04-03T11:35:56;2.13;;;0.50;;
18929;SDS011;43305;52.186;5.598;2023-04-03T11:38:28;1.75;;;0.70;;
18929;SDS011;43305;52.186;5.598;2023-04-03T11:41:01;1.50;;;0.50;;
18929;SDS011;43305;52.186;5.598;2023-04-03T11:43:40;1.77;;;0.55;;
18929;SDS011;43305;52.186;5.598;2023-04-03T11:46:11;1.52;;;0.60;;
18929;SDS011;43305;52.186;5.598;2023-04-03T11:48:42;2.97;;;0.57;;
18929;SDS011;43305;52.186;5.598;2023-04-03T11:57:31;1.75;;;0.50;;
18929;SDS011;43305;52.186;5.598;2023-04-03T12:03:55;1.15;;;0.45;;
18929;SDS011;43305;52.186;5.598;2023-04-03T12:12:33;2.70;;;1.02;;
18929;SDS011;43305;52.186;5.598;2023-04-03T12:15:23;3.70;;;0.70;;
18929;SDS011;43305;52.186;5.598;2023-04-03T12:21:23;1.27;;;0.60;;
18929;SDS011;43305;52.186;5.598;2023-04-03T12:24:23;1.98;;;0.65;;
18929;SDS011;43305;52.186;5.598;2023-04-03T12:27:01;2.17;;;0.70;;
18929;SDS011;43305;52.186;5.598;2023-04-03T12:29:33;2.08;;;0.60;;
18929;SDS011;43305;52.186;5.598;2023-04-03T12:32:08;2.22;;;0.80;;
18929;SDS011;43305;52.186;5.598;2023-04-03T12:34:46;2.53;;;0.68;;
18929;SDS011;43305;52.186;5.598;2023-04-03T12:37:28;3.60;;;0.80;;
18929;SDS011;43305;52.186;5.598;2023-04-03T12:40:17;1.73;;;0.60;;
18929;SDS011;43305;52.186;5.598;2023-04-03T12:42:57;3.22;;;0.65;;
18929;SDS011;43305;52.186;5.598;2023-04-03T12:45:38;2.13;;;0.80;;
18929;SDS011;43305;52.186;5.598;2023-04-03T12:48:12;3.38;;;0.73;;
18929;SDS011;43305;52.186;5.598;2023-04-03T12:50:41;2.83;;;0.73;;
18929;SDS011;43305;52.186;5.598;2023-04-03T12:53:13;1.02;;;0.60;;
18929;SDS011;43305;52.186;5.598;2023-04-03T12:55:43;2.78;;;0.65;;
18929;SDS011;43305;52.186;5.598;2023-04-03T12:58:14;3.80;;;0.50;;
18929;SDS011;43305;52.186;5.598;2023-04-03T13:00:58;1.35;;;0.60;;
18929;SDS011;43305;52.186;5.598;2023-04-03T13:03:26;2.15;;;0.60;;
18929;SDS011;43305;52.186;5.598;2023-04-03T13:06:10;2.63;;;0.70;;
18929;SDS011;43305;52.186;5.598;2023-04-03T13:08:49;1.23;;;0.60;;
18929;SDS011;43305;52.186;5.598;2023-04-03T13:11:24;4.45;;;0.95;;
18929;SDS011;43305;52.186;5.598;2023-04-03T13:13:54;3.53;;;0.80;;
18929;SDS011;43305;52.186;5.598;2023-04-03T13:16:22;2.58;;;0.70;;
18929;SDS011;43305;52.186;5.598;2023-04-03T13:18:50;1.73;;;0.70;;
18929;SDS011;43305;52.186;5.598;2023-04-03T13:21:23;2.90;;;0.80;;
18929;SDS011;43305;52.186;5.598;2023-04-03T13:23:54;1.20;;;0.50;;
18929;SDS011;43305;52.186;5.598;2023-04-03T13:26:26;4.55;;;0.80;;
18929;SDS011;43305;52.186;5.598;2023-04-03T13:28:59;2.45;;;0.70;;
18929;SDS011;43305;52.186;5.598;2023-04-03T13:31:36;3.83;;;0.70;;
18929;SDS011;43305;52.186;5.598;2023-04-03T13:34:06;3.55;;;0.80;;
18929;SDS011;43305;52.186;5.598;2023-04-03T13:36:39;2.92;;;0.80;;
18929;SDS011;43305;52.186;5.598;2023-04-03T13:39:22;3.45;;;0.68;;
18929;SDS011;43305;52.186;5.598;2023-04-03T13:41:51;2.00;;;1.00;;
18929;SDS011;43305;52.186;5.598;2023-04-03T13:44:30;2.40;;;0.88;;
18929;SDS011;43305;52.186;5.598;2023-04-03T13:47:00;2.75;;;1.02;;
18929;SDS011;43305;52.186;5.598;2023-04-03T13:49:40;4.10;;;0.80;;
18929;SDS011;43305;52.186;5.598;2023-04-03T13:52:20;4.03;;;0.93;;
18929;SDS011;43305;52.186;5.598;2023-04-03T13:54:54;4.68;;;1.30;;
18929;SDS011;43305;52.186;5.598;2023-04-03T13:57:23;2.20;;;0.95;;
18929;SDS011;43305;52.186;5.598;2023-04-03T13:59:52;2.10;;;0.80;;
18929;SDS011;43305;52.186;5.598;2023-04-03T14:02:20;2.95;;;0.77;;
18929;SDS011;43305;52.186;5.598;2023-04-03T14:04:53;3.65;;;0.70;;
18929;SDS011;43305;52.186;5.598;2023-04-03T14:07:30;3.05;;;0.75;;
18929;SDS011;43305;52.186;5.598;2023-04-03T14:10:00;4.03;;;0.90;;
18929;SDS011;43305;52.186;5.598;2023-04-03T14:12:27;3.40;;;0.82;;
18929;SDS011;43305;52.186;5.598;2023-04-03T14:14:59;2.65;;;0.90;;
18929;SDS011;43305;52.186;5.598;2023-04-03T14:17:32;1.80;;;0.90;;
18929;SDS011;43305;52.186;5.598;2023-04-03T14:20:01;2.00;;;0.77;;
18929;SDS011;43305;52.186;5.598;2023-04-03T14:22:30;2.45;;;0.95;;
18929;SDS011;43305;52.186;5.598;2023-04-03T14:25:00;2.60;;;1.00;;
18929;SDS011;43305;52.186;5.598;2023-04-03T14:27:33;3.50;;;1.00;;
18929;SDS011;43305;52.186;5.598;2023-04-03T14:30:03;2.50;;;0.88;;
18929;SDS011;43305;52.186;5.598;2023-04-03T14:32:36;1.90;;;0.90;;
18929;SDS011;43305;52.186;5.598;2023-04-03T14:35:03;4.82;;;1.15;;
18929;SDS011;43305;52.186;5.598;2023-04-03T14:37:39;3.15;;;1.13;;
18929;SDS011;43305;52.186;5.598;2023-04-03T14:40:13;4.60;;;1.10;;
18929;SDS011;43305;52.186;5.598;2023-04-03T14:42:44;3.40;;;1.00;;
18929;SDS011;43305;52.186;5.598;2023-04-03T14:45:14;3.90;;;1.00;;
18929;SDS011;43305;52.186;5.598;2023-04-03T14:50:29;3.50;;;1.00;;
18929;SDS011;43305;52.186;5.598;2023-04-03T14:52:57;4.15;;;1.05;;
18929;SDS011;43305;52.186;5.598;2023-04-03T14:55:26;3.08;;;1.33;;
18929;SDS011;43305;52.186;5.598;2023-04-03T14:57:56;3.42;;;0.90;;
18929;SDS011;43305;52.186;5.598;2023-04-03T15:00:28;2.72;;;1.08;;
18929;SDS011;43305;52.186;5.598;2023-04-03T15:02:55;2.72;;;0.90;;
18929;SDS011;43305;52.186;5.598;2023-04-03T15:05:24;3.25;;;1.10;;
18929;SDS011;43305;52.186;5.598;2023-04-03T15:07:57;2.85;;;1.10;;
18929;SDS011;43305;52.186;5.598;2023-04-03T15:10:27;3.03;;;0.93;;
18929;SDS011;43305;52.186;5.598;2023-04-03T15:12:58;4.28;;;0.90;;
18929;SDS011;43305;52.186;5.598;2023-04-03T15:15:27;5.10;;;1.00;;
18929;SDS011;43305;52.186;5.598;2023-04-03T15:17:58;3.00;;;1.20;;
18929;SDS011;43305;52.186;5.598;2023-04-03T15:20:29;3.33;;;1.00;;
18929;SDS011;43305;52.186;5.598;2023-04-03T15:22:58;3.95;;;1.48;;
18929;SDS011;43305;52.186;5.598;2023-04-03T15:25:28;9.07;;;3.67;;
18929;SDS011;43305;52.186;5.598;2023-04-03T15:28:01;3.35;;;1.50;;
18929;SDS011;43305;52.186;5.598;2023-04-03T15:30:28;2.90;;;1.30;;
18929;SDS011;43305;52.186;5.598;2023-04-03T15:32:55;3.45;;;1.35;;
18929;SDS011;43305;52.186;5.598;2023-04-03T15:35:23;14.93;;;5.72;;